createdAt,value
2023-05-21T00:01:42.542Z,56.60
2023-05-21T00:04:09.632Z,56.53
2023-05-21T00:06:36.680Z,56.50
2023-05-21T00:09:05.743Z,56.43
2023-05-21T00:11:33.327Z,56.34
2023-05-21T00:14:00.220Z,56.54
2023-05-21T00:16:27.190Z,56.48
2023-05-21T00:18:54.696Z,56.47
2023-05-21T00:21:26.233Z,56.42
2023-05-21T00:23:57.092Z,56.49
2023-05-21T00:26:24.201Z,56.67
2023-05-21T00:28:54.477Z,56.52
2023-05-21T00:31:21.756Z,56.51
2023-05-21T00:33:48.680Z,56.39
2023-05-21T00:36:16.532Z,56.53
2023-05-21T00:38:44.314Z,56.42
2023-05-21T00:41:11.640Z,56.26
2023-05-21T00:43:41.623Z,56.33
2023-05-21T00:46:16.638Z,56.46
2023-05-21T00:48:47.678Z,56.51
2023-05-21T00:51:16.558Z,56.16
2023-05-21T00:53:44.428Z,56.45
2023-05-21T00:56:11.521Z,56.37
2023-05-21T00:58:40.547Z,56.39
2023-05-21T01:01:07.556Z,56.34
2023-05-21T01:03:38.506Z,56.08
2023-05-21T01:06:08.144Z,56.11
2023-05-21T01:08:37.553Z,56.29
2023-05-21T01:11:06.639Z,55.98
2023-05-21T01:13:38.030Z,56.15
2023-05-21T01:16:08.919Z,56.17
2023-05-21T01:18:37.945Z,56.21
2023-05-21T01:21:07.391Z,56.32
2023-05-21T01:23:34.626Z,56.64
2023-05-21T01:26:01.608Z,56.49
2023-05-21T01:28:29.767Z,56.80
2023-05-21T01:31:02.752Z,57.07
2023-05-21T01:33:50.393Z,57.07
2023-05-21T01:36:31.035Z,57.10
2023-05-21T01:39:06.742Z,57.00
2023-05-21T01:41:38.368Z,57.16
2023-05-21T01:44:07.120Z,57.08
2023-05-21T01:46:36.788Z,57.28
2023-05-21T01:49:06.298Z,57.31
2023-05-21T01:51:34.368Z,57.12
2023-05-21T01:54:02.192Z,57.09
2023-05-21T01:56:29.217Z,57.24
2023-05-21T01:58:59.795Z,56.98
2023-05-21T02:01:30.426Z,57.10
2023-05-21T02:03:58.166Z,57.03
2023-05-21T02:06:25.706Z,56.96
2023-05-21T02:08:52.654Z,57.12
2023-05-21T02:11:19.917Z,57.20
2023-05-21T02:13:46.897Z,57.02
2023-05-21T02:16:15.795Z,56.91
2023-05-21T02:18:46.350Z,57.13
2023-05-21T02:21:13.373Z,57.10
2023-05-21T02:23:42.541Z,57.14
2023-05-21T02:26:09.486Z,57.10
2023-05-21T02:28:38.446Z,57.42
2023-05-21T02:31:05.417Z,57.22
2023-05-21T02:33:32.437Z,57.45
2023-05-21T02:35:59.399Z,57.46
2023-05-21T02:38:26.332Z,57.59
2023-05-21T02:40:53.656Z,57.58
2023-05-21T02:43:20.802Z,57.62
2023-05-21T02:45:47.949Z,57.66
2023-05-21T02:48:15.172Z,57.50
2023-05-21T02:50:42.535Z,57.41
2023-05-21T02:53:09.620Z,57.52
2023-05-21T02:55:36.805Z,57.46
2023-05-21T02:58:03.965Z,57.46
2023-05-21T03:00:31.168Z,57.66
2023-05-21T03:03:00.349Z,57.47
2023-05-21T03:05:27.611Z,57.53
2023-05-21T03:07:54.537Z,57.56
2023-05-21T03:10:21.501Z,57.57
2023-05-21T03:12:48.454Z,57.58
2023-05-21T03:15:16.751Z,57.74
2023-05-21T03:17:44.435Z,57.87
2023-05-21T03:20:18.596Z,57.79
2023-05-21T03:22:46.410Z,58.02
2023-05-21T03:25:13.607Z,57.95
2023-05-21T03:27:40.766Z,58.44
2023-05-21T03:30:19.351Z,58.22
2023-05-21T03:33:06.564Z,58.42
2023-05-21T03:35:33.931Z,58.16
2023-05-21T03:38:01.782Z,58.24
2023-05-21T03:40:28.776Z,58.40
2023-05-21T03:42:55.750Z,58.41
2023-05-21T03:45:22.850Z,58.23
2023-05-21T03:48:10.078Z,58.20
2023-05-21T03:50:37.513Z,58.07
2023-05-21T03:53:05.660Z,58.01
2023-05-21T03:55:32.720Z,58.10
2023-05-21T03:57:59.747Z,58.03
2023-05-21T04:00:28.366Z,58.27
2023-05-21T04:02:55.758Z,58.22
2023-05-21T04:05:22.735Z,58.30
2023-05-21T04:07:50.440Z,58.13
2023-05-21T04:10:17.402Z,57.75
2023-05-21T04:12:44.459Z,57.46
2023-05-21T04:15:11.551Z,57.24
2023-05-21T04:17:40.006Z,56.21
2023-05-21T04:20:08.264Z,56.29
2023-05-21T04:22:35.324Z,56.09
2023-05-21T04:25:02.333Z,55.83
2023-05-21T04:27:35.357Z,55.57
2023-05-21T04:30:04.284Z,55.64
2023-05-21T04:32:34.874Z,55.76
2023-05-21T04:35:02.053Z,55.69
2023-05-21T04:37:30.124Z,55.68
2023-05-21T04:39:58.110Z,55.16
2023-05-21T04:42:26.183Z,55.60
2023-05-21T04:44:55.593Z,55.78
2023-05-21T04:47:22.900Z,55.86
2023-05-21T04:49:50.875Z,55.84
2023-05-21T04:52:17.927Z,56.01
2023-05-21T04:54:45.824Z,56.58
2023-05-21T04:57:13.057Z,56.66
2023-05-21T04:59:40.261Z,56.90
2023-05-21T05:02:07.290Z,56.45
2023-05-21T05:04:34.236Z,56.48
2023-05-21T05:07:01.703Z,57.13
2023-05-21T05:09:30.138Z,57.13
2023-05-21T05:11:57.138Z,56.60
2023-05-21T05:14:25.124Z,56.94
2023-05-21T05:16:52.176Z,57.34
2023-05-21T05:19:20.474Z,57.21
2023-05-21T05:21:47.888Z,57.16
2023-05-21T05:24:16.190Z,57.38
2023-05-21T05:26:43.734Z,58.00
2023-05-21T05:29:11.432Z,57.76
2023-05-21T05:31:38.429Z,58.37
2023-05-21T05:34:05.673Z,58.40
2023-05-21T05:36:33.635Z,58.18
2023-05-21T05:39:00.690Z,58.39
2023-05-21T05:41:27.844Z,58.31
2023-05-21T05:43:56.070Z,58.14
2023-05-21T05:46:26.201Z,57.95
2023-05-21T05:48:53.259Z,58.34
2023-05-21T05:51:20.359Z,58.05
2023-05-21T05:53:47.301Z,58.22
2023-05-21T05:56:14.396Z,57.83
2023-05-21T05:58:41.506Z,58.15
2023-05-21T06:01:11.781Z,57.99
2023-05-21T06:03:39.565Z,57.75
2023-05-21T06:06:12.065Z,58.08
2023-05-21T06:08:40.545Z,57.86
2023-05-21T06:11:07.553Z,57.66
2023-05-21T06:13:34.762Z,57.70
2023-05-21T06:16:04.188Z,57.91
2023-05-21T06:18:31.130Z,57.83
2023-05-21T06:20:58.061Z,57.95
2023-05-21T06:23:25.354Z,58.37
2023-05-21T06:25:53.073Z,58.23
2023-05-21T06:28:20.479Z,58.22
2023-05-21T06:30:48.888Z,58.14
2023-05-21T06:33:16.490Z,58.05
2023-05-21T06:35:44.183Z,58.17
2023-05-21T06:38:11.851Z,58.19
2023-05-21T06:40:38.785Z,58.08
2023-05-21T06:43:06.153Z,57.94
2023-05-21T06:46:08.260Z,57.28
2023-05-21T06:48:38.960Z,57.17
2023-05-21T06:51:06.125Z,57.02
2023-05-21T06:53:33.494Z,56.80
2023-05-21T06:56:00.820Z,56.49
2023-05-21T06:58:48.023Z,56.47
2023-05-21T07:01:16.615Z,56.20
2023-05-21T07:03:43.776Z,56.22
2023-05-21T07:06:10.732Z,55.81
2023-05-21T07:08:37.703Z,55.60
2023-05-21T07:11:04.717Z,56.00
2023-05-21T07:13:31.973Z,55.83
2023-05-21T07:15:58.962Z,55.18
2023-05-21T07:18:26.843Z,55.19
2023-05-21T07:20:53.897Z,55.36
2023-05-21T07:23:21.384Z,54.75
2023-05-21T07:25:48.418Z,53.97
2023-05-21T07:28:15.503Z,53.53
2023-05-21T07:30:42.488Z,53.43
2023-05-21T07:33:13.936Z,52.79
2023-05-21T07:35:41.022Z,52.14
2023-05-21T07:38:08.119Z,51.09
2023-05-21T07:40:35.037Z,50.74
2023-05-21T07:43:03.310Z,51.28
2023-05-21T07:45:31.721Z,50.31
2023-05-21T07:47:58.970Z,50.22
2023-05-21T07:50:27.129Z,49.92
2023-05-21T07:52:54.788Z,49.59
2023-05-21T07:55:21.956Z,49.96
2023-05-21T07:57:49.453Z,50.35
2023-05-21T08:00:19.043Z,49.71
2023-05-21T08:02:52.568Z,49.59
2023-05-21T08:05:21.219Z,49.31
2023-05-21T08:07:48.883Z,49.46
2023-05-21T08:10:17.853Z,49.33
2023-05-21T08:12:46.680Z,48.43
2023-05-21T08:15:13.898Z,48.57
2023-05-21T08:17:44.670Z,48.95
2023-05-21T08:20:13.481Z,47.83
2023-05-21T08:22:41.517Z,47.29
2023-05-21T08:25:09.437Z,47.70
2023-05-21T08:27:36.552Z,47.84
2023-05-21T08:30:05.670Z,47.36
2023-05-21T08:32:32.728Z,46.64
2023-05-21T08:35:00.751Z,46.36
2023-05-21T08:37:46.513Z,46.31
2023-05-21T08:40:23.770Z,46.51
2023-05-21T08:42:51.653Z,46.80
2023-05-21T08:45:44.911Z,46.60
2023-05-21T08:48:13.117Z,46.66
2023-05-21T08:50:41.555Z,45.54
2023-05-21T08:53:24.150Z,46.01
2023-05-21T08:55:57.400Z,44.37
2023-05-21T08:58:32.512Z,44.00
2023-05-21T09:00:59.814Z,43.71
2023-05-21T09:03:29.277Z,43.51
2023-05-21T09:05:57.547Z,44.09
2023-05-21T09:08:32.769Z,43.60
2023-05-21T09:11:03.564Z,42.89
2023-05-21T09:13:39.145Z,42.61
2023-05-21T09:16:12.548Z,43.14
2023-05-21T09:18:39.483Z,42.36
2023-05-21T09:21:26.460Z,42.61
2023-05-21T09:23:57.938Z,42.78
2023-05-21T09:26:26.448Z,41.76
2023-05-21T09:28:59.785Z,40.66
2023-05-21T09:31:27.311Z,41.08
2023-05-21T09:33:55.764Z,40.68
2023-05-21T09:36:25.569Z,40.74
2023-05-21T09:38:53.664Z,40.66
2023-05-21T09:41:22.310Z,41.06
2023-05-21T09:43:49.749Z,41.25
2023-05-21T09:46:26.095Z,40.24
2023-05-21T09:48:53.086Z,40.04
2023-05-21T09:51:21.687Z,39.94
2023-05-21T09:53:55.279Z,39.25
2023-05-21T09:56:32.275Z,39.53
2023-05-21T09:59:06.237Z,38.83
2023-05-21T10:01:34.350Z,38.75
2023-05-21T10:04:07.153Z,38.81
2023-05-21T10:06:42.894Z,38.69
2023-05-21T10:09:15.537Z,38.72
2023-05-21T10:11:45.002Z,38.00
2023-05-21T10:14:22.463Z,38.04
2023-05-21T10:16:50.419Z,37.76
2023-05-21T10:19:17.996Z,37.55
2023-05-21T10:21:45.995Z,38.29
2023-05-21T10:24:13.756Z,38.20
2023-05-21T10:26:41.794Z,38.16
2023-05-21T10:29:10.143Z,37.71
2023-05-21T10:31:39.098Z,37.33
2023-05-21T10:34:06.431Z,37.30
2023-05-21T10:36:34.324Z,37.79
2023-05-21T10:39:03.129Z,37.26
2023-05-21T10:41:46.564Z,36.99
2023-05-21T10:44:34.063Z,36.89
2023-05-21T10:47:37.896Z,36.02
2023-05-21T10:50:49.253Z,35.72
2023-05-21T10:53:56.565Z,34.70
2023-05-21T10:56:29.393Z,34.71
2023-05-21T10:59:28.228Z,34.55
2023-05-21T11:01:56.907Z,34.44
2023-05-21T11:04:26.948Z,33.95
2023-05-21T11:06:54.210Z,34.00
2023-05-21T11:09:21.118Z,33.69
2023-05-21T11:11:59.200Z,33.78
2023-05-21T11:14:56.790Z,34.17
2023-05-21T11:17:44.453Z,34.01
2023-05-21T11:20:16.662Z,34.15
2023-05-21T11:22:46.786Z,33.56
2023-05-21T11:25:15.484Z,33.98
2023-05-21T11:27:42.730Z,33.57
2023-05-21T11:30:19.904Z,33.22
2023-05-21T11:33:10.026Z,33.78
2023-05-21T11:35:44.809Z,33.01
2023-05-21T11:38:11.722Z,32.38
2023-05-21T11:40:50.554Z,31.97
2023-05-21T11:43:18.889Z,31.92
2023-05-21T11:45:47.311Z,31.91
2023-05-21T11:48:14.518Z,31.61
2023-05-21T11:50:44.710Z,31.54
2023-05-21T11:53:12.379Z,31.25
2023-05-21T11:55:43.494Z,30.39
2023-05-21T11:58:14.379Z,30.28
2023-05-21T12:00:41.536Z,30.13
2023-05-21T12:03:12.935Z,30.61
2023-05-21T12:05:49.804Z,29.94
2023-05-21T12:08:27.164Z,29.59
2023-05-21T12:11:03.367Z,29.00
2023-05-21T12:13:30.341Z,28.60
2023-05-21T12:15:57.292Z,28.75
2023-05-21T12:18:25.301Z,28.95
2023-05-21T12:20:52.526Z,29.56
2023-05-21T12:23:30.349Z,29.82
2023-05-21T12:25:57.385Z,29.15
2023-05-21T12:28:24.884Z,29.64
2023-05-21T12:30:53.489Z,29.55
2023-05-21T12:33:21.200Z,29.59
2023-05-21T12:35:51.567Z,28.71
2023-05-21T12:38:18.647Z,28.27
2023-05-21T12:40:46.058Z,28.60
2023-05-21T12:43:13.262Z,29.30
2023-05-21T12:45:40.728Z,28.72
2023-05-21T12:48:08.112Z,28.97
2023-05-21T12:50:39.247Z,28.31
2023-05-21T12:53:09.976Z,28.59
2023-05-21T12:55:36.909Z,29.28
2023-05-21T12:58:07.847Z,29.32
2023-05-21T13:00:35.239Z,29.53
2023-05-21T13:03:04.510Z,29.82
2023-05-21T13:05:31.794Z,29.04
2023-05-21T13:07:58.823Z,29.00
2023-05-21T13:10:25.767Z,28.25
2023-05-21T13:12:52.697Z,28.51
2023-05-21T13:15:19.979Z,28.16
2023-05-21T13:17:48.529Z,28.28
2023-05-21T13:20:26.236Z,28.25
2023-05-21T13:22:53.976Z,27.97
2023-05-21T13:25:24.821Z,28.44
2023-05-21T13:27:53.241Z,28.92
2023-05-21T13:30:21.987Z,28.53
2023-05-21T13:32:49.231Z,28.97
2023-05-21T13:35:16.782Z,28.33
2023-05-21T13:37:44.478Z,28.50
2023-05-21T13:40:17.012Z,27.89
2023-05-21T13:42:49.212Z,27.14
2023-05-21T13:45:20.071Z,27.29
2023-05-21T13:47:48.133Z,27.48
2023-05-21T13:50:16.190Z,26.74
2023-05-21T13:52:43.231Z,26.74
2023-05-21T13:55:10.712Z,27.68
2023-05-21T13:57:37.795Z,27.17
2023-05-21T14:00:05.887Z,27.77
2023-05-21T14:02:34.729Z,28.14
2023-05-21T14:05:01.834Z,28.29
2023-05-21T14:07:28.762Z,28.27
2023-05-21T14:09:56.062Z,28.05
2023-05-21T14:12:23.020Z,27.61
2023-05-21T14:14:50.021Z,28.10
2023-05-21T14:17:17.079Z,28.81
2023-05-21T14:19:44.135Z,27.59
2023-05-21T14:22:11.268Z,26.89
2023-05-21T14:24:38.234Z,27.81
2023-05-21T14:27:05.315Z,27.42
2023-05-21T14:29:33.214Z,27.09
2023-05-21T14:32:00.192Z,26.81
2023-05-21T14:34:27.264Z,25.89
2023-05-21T14:36:54.217Z,25.66
2023-05-21T14:39:21.153Z,25.44
2023-05-21T14:41:48.079Z,25.93
2023-05-21T14:44:15.007Z,26.66
2023-05-21T14:46:42.319Z,26.75
2023-05-21T14:49:09.273Z,26.43
2023-05-21T14:51:36.173Z,26.22
2023-05-21T14:54:03.188Z,26.60
2023-05-21T14:56:30.099Z,27.43
2023-05-21T14:58:57.015Z,26.34
2023-05-21T15:01:24.112Z,26.48
2023-05-21T15:03:51.409Z,25.93
2023-05-21T15:06:18.537Z,26.71
2023-05-21T15:08:45.478Z,26.45
2023-05-21T15:11:12.408Z,25.76
2023-05-21T15:13:39.710Z,25.59
2023-05-21T15:16:06.826Z,25.28
2023-05-21T15:18:33.853Z,26.26
2023-05-21T15:21:00.936Z,25.93
2023-05-21T15:23:28.046Z,26.56
2023-05-21T15:25:55.107Z,26.88
2023-05-21T15:28:23.024Z,27.39
2023-05-21T15:30:50.134Z,26.68
2023-05-21T15:33:17.119Z,26.51
2023-05-21T15:35:44.454Z,26.17
2023-05-21T15:38:11.706Z,26.45
2023-05-21T15:40:41.188Z,26.79
2023-05-21T15:43:08.256Z,27.35
2023-05-21T15:45:35.423Z,31.18
2023-05-21T15:48:02.553Z,32.91
2023-05-21T15:50:29.636Z,33.79
2023-05-21T15:52:56.563Z,34.37
2023-05-21T15:55:23.480Z,34.90
2023-05-21T15:57:50.706Z,35.10
2023-05-21T16:00:17.770Z,35.01
2023-05-21T16:02:44.817Z,35.63
2023-05-21T16:05:11.800Z,35.79
2023-05-21T16:07:38.737Z,35.65
2023-05-21T16:10:09.303Z,35.85
2023-05-21T16:12:36.236Z,36.20
2023-05-21T16:15:03.187Z,35.90
2023-05-21T16:17:30.150Z,36.12
2023-05-21T16:19:57.139Z,36.34
2023-05-21T16:22:24.640Z,36.16
2023-05-21T16:24:51.638Z,36.25
2023-05-21T16:27:18.576Z,36.65
2023-05-21T16:29:45.492Z,37.01
2023-05-21T16:32:13.996Z,36.95
2023-05-21T16:34:41.231Z,37.17
2023-05-21T16:37:09.636Z,37.63
2023-05-21T16:39:36.995Z,38.01
2023-05-21T16:42:04.028Z,37.88
2023-05-21T16:44:31.994Z,37.91
2023-05-21T16:47:00.227Z,38.30
2023-05-21T16:49:27.886Z,37.97
2023-05-21T16:51:54.970Z,38.21
2023-05-21T16:54:22.022Z,38.15
2023-05-21T16:56:48.971Z,37.96
2023-05-21T16:59:16.064Z,38.30
2023-05-21T17:01:43.113Z,38.24
2023-05-21T17:04:10.256Z,38.24
2023-05-21T17:06:37.246Z,38.49
2023-05-21T17:09:04.250Z,38.61
2023-05-21T17:11:31.581Z,38.59
2023-05-21T17:13:58.583Z,38.99
2023-05-21T17:16:25.544Z,38.71
2023-05-21T17:18:52.550Z,38.94
2023-05-21T17:21:19.714Z,38.99
2023-05-21T17:23:46.704Z,39.15
2023-05-21T17:26:13.950Z,39.11
2023-05-21T17:28:41.045Z,39.39
2023-05-21T17:31:09.487Z,39.35
2023-05-21T17:33:37.718Z,40.14
2023-05-21T17:36:04.883Z,40.12
2023-05-21T17:38:31.835Z,40.23
2023-05-21T17:40:59.265Z,40.18
2023-05-21T17:43:31.801Z,40.11
2023-05-21T17:45:58.793Z,40.63
2023-05-21T17:48:26.057Z,40.58
2023-05-21T17:50:53.078Z,40.79
2023-05-21T17:53:20.035Z,40.88
2023-05-21T17:55:47.041Z,40.64
2023-05-21T17:58:13.952Z,41.05
2023-05-21T18:00:40.900Z,40.97
2023-05-21T18:03:07.945Z,41.42
2023-05-21T18:05:35.540Z,41.50
2023-05-21T18:08:02.875Z,41.56
2023-05-21T18:10:30.043Z,41.26
2023-05-21T18:12:57.054Z,41.18
2023-05-21T18:15:24.018Z,41.86
2023-05-21T18:17:51.000Z,41.92
2023-05-21T18:20:18.647Z,41.82
2023-05-21T18:22:45.628Z,41.95
2023-05-21T18:25:12.559Z,42.32
2023-05-21T18:27:39.462Z,42.43
2023-05-21T18:30:07.256Z,42.16
2023-05-21T18:32:34.843Z,42.67
2023-05-21T18:35:02.333Z,42.77
2023-05-21T18:37:29.550Z,42.44
2023-05-21T18:39:56.510Z,42.93
2023-05-21T18:42:23.482Z,42.88
2023-05-21T18:44:53.462Z,43.26
2023-05-21T18:47:20.985Z,42.69
2023-05-21T18:49:47.975Z,43.52
2023-05-21T18:52:14.941Z,43.54
2023-05-21T18:54:41.840Z,42.78
2023-05-21T18:57:08.765Z,43.21
2023-05-21T18:59:36.288Z,43.14
2023-05-21T19:02:04.459Z,43.77
2023-05-21T19:04:31.484Z,43.75
2023-05-21T19:06:58.621Z,43.35
2023-05-21T19:09:25.602Z,43.85
2023-05-21T19:11:52.541Z,43.27
2023-05-21T19:14:20.954Z,43.67
2023-05-21T19:16:48.030Z,43.79
2023-05-21T19:19:14.993Z,44.26
2023-05-21T19:21:41.949Z,43.79
2023-05-21T19:24:08.925Z,43.86
2023-05-21T19:26:35.889Z,44.27
2023-05-21T19:29:02.808Z,44.16
2023-05-21T19:31:29.790Z,44.25
2023-05-21T19:33:56.748Z,44.20
2023-05-21T19:36:25.030Z,44.20
2023-05-21T19:38:52.024Z,43.56
2023-05-21T19:41:19.930Z,43.66
2023-05-21T19:43:47.039Z,43.62
2023-05-21T19:46:15.961Z,43.53
2023-05-21T19:48:45.283Z,43.68
2023-05-21T19:51:12.231Z,43.34
2023-05-21T19:53:39.179Z,43.67
2023-05-21T19:56:06.221Z,43.67
2023-05-21T19:58:33.195Z,43.71
2023-05-21T20:01:00.325Z,43.05
2023-05-21T20:03:28.586Z,43.43
2023-05-21T20:05:55.550Z,43.69
2023-05-21T20:08:22.964Z,43.46
2023-05-21T20:10:51.911Z,43.75
2023-05-21T20:13:19.626Z,43.44
2023-05-21T20:15:47.846Z,44.11
2023-05-21T20:18:15.482Z,43.77
2023-05-21T20:20:43.144Z,44.09
2023-05-21T20:23:10.144Z,44.13
2023-05-21T20:25:37.064Z,44.37
2023-05-21T20:28:05.204Z,44.05
2023-05-21T20:30:34.477Z,44.02
2023-05-21T20:33:02.799Z,44.27
2023-05-21T20:35:30.566Z,44.34
2023-05-21T20:37:57.565Z,44.84
2023-05-21T20:40:24.538Z,44.47
2023-05-21T20:42:53.306Z,44.81
2023-05-21T20:45:21.010Z,45.01
2023-05-21T20:47:49.660Z,44.84
2023-05-21T20:50:17.705Z,44.62
2023-05-21T20:52:47.099Z,45.49
2023-05-21T20:55:14.859Z,45.53
2023-05-21T20:57:42.057Z,45.11
2023-05-21T21:00:11.807Z,45.07
2023-05-21T21:02:39.177Z,45.05
2023-05-21T21:05:10.118Z,45.56
2023-05-21T21:07:37.746Z,45.94
2023-05-21T21:10:05.348Z,45.20
2023-05-21T21:12:32.247Z,45.76
2023-05-21T21:14:59.141Z,46.13
2023-05-21T21:17:26.173Z,45.72
2023-05-21T21:19:53.124Z,45.61
2023-05-21T21:22:20.037Z,46.08
2023-05-21T21:24:47.888Z,46.12
2023-05-21T21:27:14.848Z,45.90
2023-05-21T21:29:41.737Z,46.26
2023-05-21T21:32:08.631Z,46.30
2023-05-21T21:34:35.515Z,46.64
2023-05-21T21:37:02.441Z,46.24
2023-05-21T21:39:29.336Z,46.52
2023-05-21T21:41:56.252Z,46.63
2023-05-21T21:44:23.137Z,46.42
2023-05-21T21:46:50.106Z,47.14
2023-05-21T21:49:17.499Z,46.78
2023-05-21T21:51:44.934Z,47.31
2023-05-21T21:54:12.088Z,47.33
2023-05-21T21:56:39.012Z,47.48
2023-05-21T21:59:05.987Z,47.18
2023-05-21T22:01:33.148Z,47.52
2023-05-21T22:04:00.115Z,47.43
2023-05-21T22:06:27.765Z,47.55
2023-05-21T22:08:54.931Z,46.93
2023-05-21T22:11:22.018Z,47.64
2023-05-21T22:13:49.215Z,47.66
2023-05-21T22:16:16.225Z,47.50
2023-05-21T22:18:43.202Z,47.66
2023-05-21T22:21:11.014Z,47.94
2023-05-21T22:23:38.695Z,47.66
2023-05-21T22:26:09.479Z,47.56
2023-05-21T22:28:36.467Z,47.67
2023-05-21T22:31:03.544Z,48.03
2023-05-21T22:33:30.703Z,48.23
2023-05-21T22:35:58.077Z,48.35
2023-05-21T22:38:25.790Z,48.19
2023-05-21T22:40:52.788Z,48.44
2023-05-21T22:43:19.822Z,48.35
2023-05-21T22:45:46.977Z,48.41
2023-05-21T22:48:14.207Z,48.32
2023-05-21T22:50:41.478Z,48.34
2023-05-21T22:53:08.599Z,48.44
2023-05-21T22:55:35.532Z,48.28
2023-05-21T22:58:02.490Z,48.21
2023-05-21T23:00:29.573Z,48.45
2023-05-21T23:02:56.651Z,48.06
2023-05-21T23:05:23.769Z,48.31
2023-05-21T23:07:50.789Z,48.31
2023-05-21T23:10:17.727Z,48.22
2023-05-21T23:12:44.673Z,48.24
2023-05-21T23:15:11.726Z,48.26
2023-05-21T23:17:38.922Z,48.03
2023-05-21T23:20:08.730Z,48.19
2023-05-21T23:22:35.886Z,48.34
2023-05-21T23:25:03.738Z,48.14
2023-05-21T23:27:30.698Z,48.13
2023-05-21T23:29:57.616Z,48.07
2023-05-21T23:32:24.701Z,47.91
2023-05-21T23:34:51.668Z,48.11
2023-05-21T23:37:19.157Z,48.27
2023-05-21T23:39:49.539Z,48.06
2023-05-21T23:42:17.426Z,48.21
2023-05-21T23:44:44.745Z,48.38
2023-05-21T23:47:11.821Z,48.15
2023-05-21T23:49:39.649Z,48.37
2023-05-21T23:52:07.291Z,48.22
2023-05-21T23:54:34.241Z,48.49
2023-05-21T23:57:02.094Z,48.90
2023-05-21T23:59:29.268Z,48.78
